sensor_id;sensor_type;location;lat;lon;timestamp;pressure;altitude;pressure_sealevel;temperature;humidity
59939;BME280;45801;51.810;19.444;2023-04-25T00:01:40;97974.33;;;12.82;72.79
59939;BME280;45801;51.810;19.444;2023-04-25T00:04:07;97970.88;;;12.85;72.44
59939;BME280;45801;51.810;19.444;2023-04-25T00:06:34;97967.89;;;12.85;72.65
59939;BME280;45801;51.810;19.444;2023-04-25T00:09:05;97965.98;;;12.88;72.09
59939;BME280;45801;51.810;19.444;2023-04-25T00:11:36;97960.39;;;12.88;72.46
59939;BME280;45801;51.810;19.444;2023-04-25T00:14:03;97956.04;;;12.92;72.00
59939;BME280;45801;51.810;19.444;2023-04-25T00:16:30;97956.95;;;12.95;72.13
59939;BME280;45801;51.810;19.444;2023-04-25T00:19:00;97956.63;;;12.97;71.86
59939;BME280;45801;51.810;19.444;2023-04-25T00:21:30;97955.41;;;13.00;71.47
59939;BME280;45801;51.810;19.444;2023-04-25T00:23:58;97954.20;;;13.00;71.94
59939;BME280;45801;51.810;19.444;2023-04-25T00:26:24;97960.17;;;13.00;71.74
59939;BME280;45801;51.810;19.444;2023-04-25T00:28:52;97955.25;;;13.00;71.86
59939;BME280;45801;51.810;19.444;2023-04-25T00:31:19;97955.75;;;12.98;72.39
59939;BME280;45801;51.810;19.444;2023-04-25T00:33:45;97954.33;;;12.97;71.87
59939;BME280;45801;51.810;19.444;2023-04-25T00:36:12;97954.14;;;12.95;71.96
59939;BME280;45801;51.810;19.444;2023-04-25T00:38:38;97960.41;;;12.91;72.86
59939;BME280;45801;51.810;19.444;2023-04-25T00:41:08;97955.62;;;12.88;71.94
59939;BME280;45801;51.810;19.444;2023-04-25T00:43:41;97956.25;;;12.82;72.33
59939;BME280;45801;51.810;19.444;2023-04-25T00:46:07;97955.96;;;12.74;72.24
59939;BME280;45801;51.810;19.444;2023-04-25T00:48:34;97959.58;;;12.69;72.80
59939;BME280;45801;51.810;19.444;2023-04-25T00:51:01;97960.89;;;12.62;72.87
59939;BME280;45801;51.810;19.444;2023-04-25T00:53:28;97963.25;;;12.56;72.61
59939;BME280;45801;51.810;19.444;2023-04-25T00:55:56;97963.74;;;12.54;72.58
59939;BME280;45801;51.810;19.444;2023-04-25T00:58:24;97959.98;;;12.49;73.32
59939;BME280;45801;51.810;19.444;2023-04-25T01:00:51;97961.14;;;12.45;73.64
59939;BME280;45801;51.810;19.444;2023-04-25T01:03:18;97958.87;;;12.45;73.05
59939;BME280;45801;51.810;19.444;2023-04-25T01:05:47;97957.82;;;12.45;72.40
59939;BME280;45801;51.810;19.444;2023-04-25T01:08:14;97958.64;;;12.41;73.24
59939;BME280;45801;51.810;19.444;2023-04-25T01:10:41;97960.38;;;12.40;72.80
59939;BME280;45801;51.810;19.444;2023-04-25T01:13:08;97957.59;;;12.41;72.49
59939;BME280;45801;51.810;19.444;2023-04-25T01:15:34;97958.79;;;12.40;72.70
59939;BME280;45801;51.810;19.444;2023-04-25T01:18:04;97955.92;;;12.37;72.82
59939;BME280;45801;51.810;19.444;2023-04-25T01:20:32;97957.13;;;12.35;73.54
59939;BME280;45801;51.810;19.444;2023-04-25T01:22:59;97952.62;;;12.38;72.59
59939;BME280;45801;51.810;19.444;2023-04-25T01:25:27;97955.44;;;12.39;72.65
59939;BME280;45801;51.810;19.444;2023-04-25T01:27:55;97954.33;;;12.35;72.67
59939;BME280;45801;51.810;19.444;2023-04-25T01:30:22;97953.79;;;12.34;72.65
59939;BME280;45801;51.810;19.444;2023-04-25T01:33:00;97953.95;;;12.33;72.56
59939;BME280;45801;51.810;19.444;2023-04-25T01:35:27;97952.67;;;12.31;73.29
59939;BME280;45801;51.810;19.444;2023-04-25T01:37:54;97951.28;;;12.31;73.10
59939;BME280;45801;51.810;19.444;2023-04-25T01:40:21;97951.56;;;12.27;73.28
59939;BME280;45801;51.810;19.444;2023-04-25T01:42:48;97952.04;;;12.24;73.20
59939;BME280;45801;51.810;19.444;2023-04-25T01:45:15;97952.30;;;12.18;73.55
59939;BME280;45801;51.810;19.444;2023-04-25T01:47:42;97958.20;;;12.13;73.62
59939;BME280;45801;51.810;19.444;2023-04-25T01:50:10;97959.59;;;12.12;73.18
59939;BME280;45801;51.810;19.444;2023-04-25T01:52:37;97961.31;;;12.12;73.48
59939;BME280;45801;51.810;19.444;2023-04-25T01:55:06;97962.80;;;12.06;74.34
59939;BME280;45801;51.810;19.444;2023-04-25T01:57:32;97964.89;;;12.04;74.66
59939;BME280;45801;51.810;19.444;2023-04-25T02:00:02;97965.59;;;12.05;74.30
59939;BME280;45801;51.810;19.444;2023-04-25T02:02:29;97964.84;;;12.01;74.81
59939;BME280;45801;51.810;19.444;2023-04-25T02:04:56;97966.59;;;12.02;74.38
59939;BME280;45801;51.810;19.444;2023-04-25T02:07:22;97964.89;;;11.94;75.07
59939;BME280;45801;51.810;19.444;2023-04-25T02:09:49;97964.48;;;11.92;74.65
59939;BME280;45801;51.810;19.444;2023-04-25T02:12:15;97964.16;;;11.94;74.61
59939;BME280;45801;51.810;19.444;2023-04-25T02:14:42;97965.71;;;11.93;74.68
59939;BME280;45801;51.810;19.444;2023-04-25T02:17:08;97960.69;;;11.86;75.43
59939;BME280;45801;51.810;19.444;2023-04-25T02:19:35;97960.17;;;11.78;75.43
59939;BME280;45801;51.810;19.444;2023-04-25T02:22:01;97961.35;;;11.75;75.05
59939;BME280;45801;51.810;19.444;2023-04-25T02:24:28;97964.61;;;11.61;75.64
59939;BME280;45801;51.810;19.444;2023-04-25T02:26:54;97965.75;;;11.56;75.04
59939;BME280;45801;51.810;19.444;2023-04-25T02:29:22;97967.35;;;11.58;74.72
59939;BME280;45801;51.810;19.444;2023-04-25T02:31:49;97966.70;;;11.51;75.07
59939;BME280;45801;51.810;19.444;2023-04-25T02:34:16;97969.83;;;11.50;74.87
59939;BME280;45801;51.810;19.444;2023-04-25T02:36:42;97971.09;;;11.52;74.98
59939;BME280;45801;51.810;19.444;2023-04-25T02:39:09;97971.27;;;11.52;74.71
59939;BME280;45801;51.810;19.444;2023-04-25T02:41:36;97970.88;;;11.49;74.56
59939;BME280;45801;51.810;19.444;2023-04-25T02:44:04;97972.34;;;11.44;74.97
59939;BME280;45801;51.810;19.444;2023-04-25T02:46:31;97976.76;;;11.45;74.35
59939;BME280;45801;51.810;19.444;2023-04-25T02:48:57;97974.39;;;11.41;74.38
59939;BME280;45801;51.810;19.444;2023-04-25T02:51:24;97976.38;;;11.36;73.96
59939;BME280;45801;51.810;19.444;2023-04-25T02:53:51;97974.11;;;11.35;73.50
59939;BME280;45801;51.810;19.444;2023-04-25T02:56:17;97973.77;;;11.36;73.33
59939;BME280;45801;51.810;19.444;2023-04-25T02:58:45;97977.20;;;11.32;73.19
59939;BME280;45801;51.810;19.444;2023-04-25T03:01:11;97978.69;;;11.19;73.71
59939;BME280;45801;51.810;19.444;2023-04-25T03:03:37;97976.59;;;11.11;73.43
59939;BME280;45801;51.810;19.444;2023-04-25T03:06:04;97975.45;;;11.07;72.79
59939;BME280;45801;51.810;19.444;2023-04-25T03:08:31;97975.46;;;11.07;73.08
59939;BME280;45801;51.810;19.444;2023-04-25T03:10:58;97974.88;;;10.96;73.01
59939;BME280;45801;51.810;19.444;2023-04-25T03:13:25;97973.82;;;10.96;73.75
59939;BME280;45801;51.810;19.444;2023-04-25T03:15:52;97977.67;;;10.96;74.08
59939;BME280;45801;51.810;19.444;2023-04-25T03:18:18;97978.22;;;10.96;73.97
59939;BME280;45801;51.810;19.444;2023-04-25T03:20:45;97979.37;;;10.93;73.81
59939;BME280;45801;51.810;19.444;2023-04-25T03:23:12;97983.35;;;10.91;73.63
59939;BME280;45801;51.810;19.444;2023-04-25T03:25:39;97982.17;;;10.93;73.95
59939;BME280;45801;51.810;19.444;2023-04-25T03:28:06;97983.48;;;10.98;73.49
59939;BME280;45801;51.810;19.444;2023-04-25T03:30:32;97983.10;;;10.96;73.88
59939;BME280;45801;51.810;19.444;2023-04-25T03:32:59;97980.92;;;10.84;74.00
59939;BME280;45801;51.810;19.444;2023-04-25T03:35:25;97981.85;;;10.78;73.46
59939;BME280;45801;51.810;19.444;2023-04-25T03:37:52;97983.67;;;10.74;73.70
59939;BME280;45801;51.810;19.444;2023-04-25T03:40:19;97981.58;;;10.66;73.67
59939;BME280;45801;51.810;19.444;2023-04-25T03:42:45;97986.93;;;10.63;74.36
59939;BME280;45801;51.810;19.444;2023-04-25T03:45:12;97987.06;;;10.61;73.96
59939;BME280;45801;51.810;19.444;2023-04-25T03:47:38;97989.77;;;10.64;73.67
59939;BME280;45801;51.810;19.444;2023-04-25T03:50:05;97988.98;;;10.68;74.21
59939;BME280;45801;51.810;19.444;2023-04-25T03:52:32;97990.39;;;10.69;74.50
59939;BME280;45801;51.810;19.444;2023-04-25T03:54:59;97991.11;;;10.70;73.78
59939;BME280;45801;51.810;19.444;2023-04-25T03:57:25;97990.09;;;10.71;74.21
59939;BME280;45801;51.810;19.444;2023-04-25T03:59:52;97987.39;;;10.68;73.18
59939;BME280;45801;51.810;19.444;2023-04-25T04:02:18;97990.85;;;10.66;72.75
59939;BME280;45801;51.810;19.444;2023-04-25T04:04:46;97990.39;;;10.69;72.60
59939;BME280;45801;51.810;19.444;2023-04-25T04:07:12;97993.45;;;10.57;72.15
59939;BME280;45801;51.810;19.444;2023-04-25T04:09:39;97994.25;;;10.47;71.77
59939;BME280;45801;51.810;19.444;2023-04-25T04:12:05;97996.70;;;10.38;71.99
59939;BME280;45801;51.810;19.444;2023-04-25T04:14:32;98000.94;;;10.34;71.22
59939;BME280;45801;51.810;19.444;2023-04-25T04:16:59;98004.64;;;10.29;71.37
59939;BME280;45801;51.810;19.444;2023-04-25T04:19:25;98005.98;;;10.27;71.91
59939;BME280;45801;51.810;19.444;2023-04-25T04:21:52;98010.81;;;10.23;71.67
59939;BME280;45801;51.810;19.444;2023-04-25T04:24:18;98007.91;;;10.19;71.25
59939;BME280;45801;51.810;19.444;2023-04-25T04:26:45;98004.99;;;10.15;71.07
59939;BME280;45801;51.810;19.444;2023-04-25T04:29:11;98008.70;;;10.09;71.41
59939;BME280;45801;51.810;19.444;2023-04-25T04:31:50;98011.20;;;10.04;71.30
59939;BME280;45801;51.810;19.444;2023-04-25T04:34:17;98012.66;;;10.06;71.88
59939;BME280;45801;51.810;19.444;2023-04-25T04:36:45;98015.81;;;10.00;71.52
59939;BME280;45801;51.810;19.444;2023-04-25T04:39:13;98016.42;;;9.96;71.56
59939;BME280;45801;51.810;19.444;2023-04-25T04:41:39;98020.98;;;9.90;71.22
59939;BME280;45801;51.810;19.444;2023-04-25T04:44:06;98023.36;;;9.95;71.40
59939;BME280;45801;51.810;19.444;2023-04-25T04:46:35;98024.77;;;10.01;71.49
59939;BME280;45801;51.810;19.444;2023-04-25T04:49:08;98024.61;;;9.95;70.36
59939;BME280;45801;51.810;19.444;2023-04-25T04:51:35;98020.38;;;10.00;70.71
59939;BME280;45801;51.810;19.444;2023-04-25T04:54:03;98022.63;;;10.00;70.85
59939;BME280;45801;51.810;19.444;2023-04-25T04:56:30;98021.82;;;9.96;70.10
59939;BME280;45801;51.810;19.444;2023-04-25T04:58:59;98025.36;;;9.91;69.40
59939;BME280;45801;51.810;19.444;2023-04-25T05:01:26;98028.33;;;9.90;69.00
59939;BME280;45801;51.810;19.444;2023-04-25T05:03:52;98029.52;;;9.96;69.97
59939;BME280;45801;51.810;19.444;2023-04-25T05:06:19;98028.27;;;10.01;70.44
59939;BME280;45801;51.810;19.444;2023-04-25T05:08:45;98031.58;;;10.00;69.79
59939;BME280;45801;51.810;19.444;2023-04-25T05:11:12;98030.50;;;10.00;69.67
59939;BME280;45801;51.810;19.444;2023-04-25T05:13:39;98030.39;;;9.96;68.99
59939;BME280;45801;51.810;19.444;2023-04-25T05:16:05;98027.79;;;9.96;68.41
59939;BME280;45801;51.810;19.444;2023-04-25T05:18:32;98026.58;;;9.97;68.49
59939;BME280;45801;51.810;19.444;2023-04-25T05:20:59;98031.39;;;10.00;68.71
59939;BME280;45801;51.810;19.444;2023-04-25T05:23:25;98032.56;;;9.98;68.51
59939;BME280;45801;51.810;19.444;2023-04-25T05:25:53;98033.38;;;9.96;68.39
59939;BME280;45801;51.810;19.444;2023-04-25T05:28:20;98037.07;;;10.04;69.15
59939;BME280;45801;51.810;19.444;2023-04-25T05:30:47;98038.33;;;10.11;69.46
59939;BME280;45801;51.810;19.444;2023-04-25T05:33:14;98042.08;;;10.15;68.70
59939;BME280;45801;51.810;19.444;2023-04-25T05:35:41;98043.67;;;10.15;69.51
59939;BME280;45801;51.810;19.444;2023-04-25T05:38:07;98041.21;;;10.07;67.93
59939;BME280;45801;51.810;19.444;2023-04-25T05:40:34;98042.83;;;10.03;68.66
59939;BME280;45801;51.810;19.444;2023-04-25T05:43:01;98041.56;;;10.01;68.97
59939;BME280;45801;51.810;19.444;2023-04-25T05:45:28;98044.73;;;9.96;68.10
59939;BME280;45801;51.810;19.444;2023-04-25T05:47:55;98047.91;;;9.90;67.94
59939;BME280;45801;51.810;19.444;2023-04-25T05:50:21;98050.44;;;9.93;68.94
59939;BME280;45801;51.810;19.444;2023-04-25T05:52:48;98051.21;;;9.96;68.49
59939;BME280;45801;51.810;19.444;2023-04-25T05:55:14;98054.52;;;9.96;69.28
59939;BME280;45801;51.810;19.444;2023-04-25T05:57:41;98053.75;;;9.86;67.30
59939;BME280;45801;51.810;19.444;2023-04-25T06:00:14;98050.51;;;9.89;67.48
59939;BME280;45801;51.810;19.444;2023-04-25T06:02:42;98049.23;;;9.88;67.15
59939;BME280;45801;51.810;19.444;2023-04-25T06:05:08;98052.27;;;9.89;67.00
59939;BME280;45801;51.810;19.444;2023-04-25T06:07:35;98057.59;;;9.93;66.91
59939;BME280;45801;51.810;19.444;2023-04-25T06:10:01;98059.07;;;9.95;66.65
59939;BME280;45801;51.810;19.444;2023-04-25T06:12:28;98061.14;;;9.94;67.27
59939;BME280;45801;51.810;19.444;2023-04-25T06:14:54;98059.88;;;9.86;66.33
59939;BME280;45801;51.810;19.444;2023-04-25T06:17:21;98057.39;;;9.91;66.56
59939;BME280;45801;51.810;19.444;2023-04-25T06:19:48;98058.71;;;9.88;66.36
59939;BME280;45801;51.810;19.444;2023-04-25T06:22:14;98056.42;;;9.88;66.12
59939;BME280;45801;51.810;19.444;2023-04-25T06:24:40;98057.69;;;9.83;66.36
59939;BME280;45801;51.810;19.444;2023-04-25T06:27:07;98063.58;;;9.74;66.69
59939;BME280;45801;51.810;19.444;2023-04-25T06:29:33;98066.43;;;9.70;66.54
59939;BME280;45801;51.810;19.444;2023-04-25T06:32:00;98066.85;;;9.66;66.23
59939;BME280;45801;51.810;19.444;2023-04-25T06:34:26;98066.96;;;9.64;66.98
59939;BME280;45801;51.810;19.444;2023-04-25T06:36:53;98070.08;;;9.63;66.07
59939;BME280;45801;51.810;19.444;2023-04-25T06:39:19;98070.71;;;9.67;66.27
59939;BME280;45801;51.810;19.444;2023-04-25T06:41:46;98077.17;;;9.73;67.13
59939;BME280;45801;51.810;19.444;2023-04-25T06:44:12;98074.89;;;9.85;67.38
59939;BME280;45801;51.810;19.444;2023-04-25T06:46:39;98073.13;;;9.91;67.75
59939;BME280;45801;51.810;19.444;2023-04-25T06:49:05;98068.45;;;9.99;67.20
59939;BME280;45801;51.810;19.444;2023-04-25T06:51:32;98068.47;;;10.07;66.76
59939;BME280;45801;51.810;19.444;2023-04-25T06:53:58;98068.86;;;10.08;65.90
59939;BME280;45801;51.810;19.444;2023-04-25T06:56:25;98070.34;;;10.11;66.17
59939;BME280;45801;51.810;19.444;2023-04-25T06:58:51;98071.86;;;10.09;65.90
59939;BME280;45801;51.810;19.444;2023-04-25T07:01:18;98069.16;;;10.06;64.54
59939;BME280;45801;51.810;19.444;2023-04-25T07:03:44;98068.07;;;10.11;64.79
59939;BME280;45801;51.810;19.444;2023-04-25T07:06:11;98071.96;;;10.13;64.44
59939;BME280;45801;51.810;19.444;2023-04-25T07:08:37;98072.66;;;10.13;65.28
59939;BME280;45801;51.810;19.444;2023-04-25T07:11:04;98070.26;;;10.15;65.31
59939;BME280;45801;51.810;19.444;2023-04-25T07:13:30;98070.88;;;10.18;65.32
59939;BME280;45801;51.810;19.444;2023-04-25T07:15:57;98074.94;;;10.19;65.41
59939;BME280;45801;51.810;19.444;2023-04-25T07:18:23;98076.12;;;10.24;65.67
59939;BME280;45801;51.810;19.444;2023-04-25T07:20:51;98074.34;;;10.30;65.57
59939;BME280;45801;51.810;19.444;2023-04-25T07:23:17;98076.74;;;10.35;65.65
59939;BME280;45801;51.810;19.444;2023-04-25T07:25:44;98073.29;;;10.30;63.66
59939;BME280;45801;51.810;19.444;2023-04-25T07:28:10;98069.59;;;10.35;63.94
59939;BME280;45801;51.810;19.444;2023-04-25T07:30:36;98075.29;;;10.33;63.40
59939;BME280;45801;51.810;19.444;2023-04-25T07:33:03;98072.24;;;10.36;63.46
59939;BME280;45801;51.810;19.444;2023-04-25T07:35:30;98070.45;;;10.34;63.01
59939;BME280;45801;51.810;19.444;2023-04-25T07:37:56;98073.97;;;10.35;63.13
59939;BME280;45801;51.810;19.444;2023-04-25T07:40:23;98068.91;;;10.36;62.81
59939;BME280;45801;51.810;19.444;2023-04-25T07:42:50;98073.30;;;10.37;62.58
59939;BME280;45801;51.810;19.444;2023-04-25T07:45:23;98074.77;;;10.39;62.85
59939;BME280;45801;51.810;19.444;2023-04-25T07:47:50;98073.73;;;10.40;62.02
59939;BME280;45801;51.810;19.444;2023-04-25T07:50:18;98069.91;;;10.48;62.02
59939;BME280;45801;51.810;19.444;2023-04-25T07:52:44;98070.23;;;10.61;62.23
59939;BME280;45801;51.810;19.444;2023-04-25T07:55:11;98069.48;;;10.67;62.27
59939;BME280;45801;51.810;19.444;2023-04-25T07:57:38;98067.95;;;10.75;61.61
59939;BME280;45801;51.810;19.444;2023-04-25T08:00:05;98068.74;;;10.79;61.35
59939;BME280;45801;51.810;19.444;2023-04-25T08:02:35;98069.86;;;10.75;60.59
59939;BME280;45801;51.810;19.444;2023-04-25T08:05:02;98072.16;;;10.69;60.62
59939;BME280;45801;51.810;19.444;2023-04-25T08:07:29;98073.81;;;10.72;61.16
59939;BME280;45801;51.810;19.444;2023-04-25T08:09:55;98073.17;;;10.74;60.64
59939;BME280;45801;51.810;19.444;2023-04-25T08:12:22;98075.65;;;10.75;61.35
59939;BME280;45801;51.810;19.444;2023-04-25T08:14:48;98076.62;;;10.79;61.60
59939;BME280;45801;51.810;19.444;2023-04-25T08:17:15;98076.91;;;10.91;61.32
59939;BME280;45801;51.810;19.444;2023-04-25T08:19:41;98078.85;;;11.00;61.15
59939;BME280;45801;51.810;19.444;2023-04-25T08:22:08;98077.05;;;10.98;60.34
59939;BME280;45801;51.810;19.444;2023-04-25T08:24:34;98075.56;;;10.93;60.80
59939;BME280;45801;51.810;19.444;2023-04-25T08:27:00;98079.34;;;10.98;61.17
59939;BME280;45801;51.810;19.444;2023-04-25T08:29:27;98078.55;;;11.02;60.72
59939;BME280;45801;51.810;19.444;2023-04-25T08:31:54;98082.56;;;11.01;60.51
59939;BME280;45801;51.810;19.444;2023-04-25T08:34:21;98077.98;;;11.00;60.32
59939;BME280;45801;51.810;19.444;2023-04-25T08:36:47;98078.84;;;10.99;60.56
59939;BME280;45801;51.810;19.444;2023-04-25T08:39:13;98081.42;;;10.90;60.01
59939;BME280;45801;51.810;19.444;2023-04-25T08:41:41;98077.60;;;10.99;60.50
59939;BME280;45801;51.810;19.444;2023-04-25T08:44:10;98078.35;;;11.09;60.81
59939;BME280;45801;51.810;19.444;2023-04-25T08:46:40;98079.40;;;11.16;60.38
59939;BME280;45801;51.810;19.444;2023-04-25T08:49:08;98078.23;;;11.19;58.67
59939;BME280;45801;51.810;19.444;2023-04-25T08:51:45;98080.18;;;11.20;58.14
59939;BME280;45801;51.810;19.444;2023-04-25T08:54:14;98080.31;;;11.10;57.74
59939;BME280;45801;51.810;19.444;2023-04-25T08:56:44;98081.89;;;11.10;58.06
59939;BME280;45801;51.810;19.444;2023-04-25T08:59:14;98081.93;;;11.12;57.72
59939;BME280;45801;51.810;19.444;2023-04-25T09:01:40;98092.46;;;11.12;58.18
59939;BME280;45801;51.810;19.444;2023-04-25T09:04:07;98092.68;;;11.15;58.28
59939;BME280;45801;51.810;19.444;2023-04-25T09:06:34;98094.02;;;11.11;57.11
59939;BME280;45801;51.810;19.444;2023-04-25T09:09:06;98097.96;;;11.16;58.01
59939;BME280;45801;51.810;19.444;2023-04-25T09:11:33;98098.98;;;11.22;58.35
59939;BME280;45801;51.810;19.444;2023-04-25T09:14:18;98100.56;;;11.23;57.93
59939;BME280;45801;51.810;19.444;2023-04-25T09:19:23;98103.57;;;11.23;57.42
59939;BME280;45801;51.810;19.444;2023-04-25T09:21:50;98099.96;;;11.27;57.47
59939;BME280;45801;51.810;19.444;2023-04-25T09:24:30;98102.07;;;11.35;57.84
59939;BME280;45801;51.810;19.444;2023-04-25T09:26:57;98105.31;;;11.39;56.91
59939;BME280;45801;51.810;19.444;2023-04-25T09:29:38;98105.53;;;11.41;57.25
59939;BME280;45801;51.810;19.444;2023-04-25T09:32:26;98105.34;;;11.40;57.25
59939;BME280;45801;51.810;19.444;2023-04-25T09:34:54;98106.73;;;11.40;57.69
59939;BME280;45801;51.810;19.444;2023-04-25T09:37:29;98108.41;;;11.44;57.72
59939;BME280;45801;51.810;19.444;2023-04-25T09:39:58;98112.52;;;11.48;56.68
59939;BME280;45801;51.810;19.444;2023-04-25T09:42:27;98114.06;;;11.39;56.01
59939;BME280;45801;51.810;19.444;2023-04-25T09:44:58;98112.58;;;11.43;57.23
59939;BME280;45801;51.810;19.444;2023-04-25T09:47:26;98111.48;;;11.48;57.25
59939;BME280;45801;51.810;19.444;2023-04-25T09:49:54;98112.45;;;11.53;57.15
59939;BME280;45801;51.810;19.444;2023-04-25T09:52:23;98113.43;;;11.58;57.31
59939;BME280;45801;51.810;19.444;2023-04-25T09:54:50;98116.02;;;11.64;56.84
59939;BME280;45801;51.810;19.444;2023-04-25T09:57:24;98115.63;;;11.62;56.87
59939;BME280;45801;51.810;19.444;2023-04-25T09:59:52;98114.45;;;11.64;57.13
59939;BME280;45801;51.810;19.444;2023-04-25T10:02:23;98115.38;;;11.68;56.62
59939;BME280;45801;51.810;19.444;2023-04-25T10:04:52;98115.16;;;11.73;55.99
59939;BME280;45801;51.810;19.444;2023-04-25T10:07:23;98116.02;;;11.80;55.52
59939;BME280;45801;51.810;19.444;2023-04-25T10:10:00;98117.49;;;11.84;56.21
59939;BME280;45801;51.810;19.444;2023-04-25T10:12:29;98118.58;;;11.77;55.96
59939;BME280;45801;51.810;19.444;2023-04-25T10:14:58;98115.58;;;11.76;56.73
59939;BME280;45801;51.810;19.444;2023-04-25T10:17:26;98117.86;;;11.77;56.59
59939;BME280;45801;51.810;19.444;2023-04-25T10:19:54;98118.40;;;11.77;56.38
59939;BME280;45801;51.810;19.444;2023-04-25T10:22:28;98115.63;;;11.80;56.42
59939;BME280;45801;51.810;19.444;2023-04-25T10:24:56;98115.38;;;11.84;56.67
59939;BME280;45801;51.810;19.444;2023-04-25T10:27:23;98117.36;;;11.86;56.31
59939;BME280;45801;51.810;19.444;2023-04-25T10:30:07;98113.70;;;11.88;56.15
59939;BME280;45801;51.810;19.444;2023-04-25T10:32:37;98111.68;;;11.83;56.35
59939;BME280;45801;51.810;19.444;2023-04-25T10:35:16;98114.73;;;11.87;56.71
59939;BME280;45801;51.810;19.444;2023-04-25T10:38:13;98112.88;;;11.91;56.64
59939;BME280;45801;51.810;19.444;2023-04-25T10:40:40;98111.50;;;11.91;56.00
59939;BME280;45801;51.810;19.444;2023-04-25T10:45:59;98112.67;;;11.80;56.43
59939;BME280;45801;51.810;19.444;2023-04-25T10:48:30;98113.20;;;11.73;56.63
59939;BME280;45801;51.810;19.444;2023-04-25T10:51:10;98110.20;;;11.71;56.25
59939;BME280;45801;51.810;19.444;2023-04-25T10:53:37;98108.70;;;11.66;55.82
59939;BME280;45801;51.810;19.444;2023-04-25T10:56:19;98104.73;;;11.69;56.47
59939;BME280;45801;51.810;19.444;2023-04-25T10:58:47;98109.56;;;11.65;56.97
59939;BME280;45801;51.810;19.444;2023-04-25T11:01:20;98110.16;;;11.60;57.11
59939;BME280;45801;51.810;19.444;2023-04-25T11:03:47;98110.53;;;11.62;56.99
59939;BME280;45801;51.810;19.444;2023-04-25T11:06:25;98109.91;;;11.56;56.19
59939;BME280;45801;51.810;19.444;2023-04-25T11:08:53;98109.40;;;11.58;55.72
59939;BME280;45801;51.810;19.444;2023-04-25T11:11:20;98109.92;;;11.65;55.38
59939;BME280;45801;51.810;19.444;2023-04-25T11:13:50;98111.45;;;11.72;55.00
59939;BME280;45801;51.810;19.444;2023-04-25T11:16:17;98110.91;;;11.79;55.28
59939;BME280;45801;51.810;19.444;2023-04-25T11:18:44;98113.02;;;11.80;55.01
59939;BME280;45801;51.810;19.444;2023-04-25T11:21:11;98110.96;;;11.74;55.71
59939;BME280;45801;51.810;19.444;2023-04-25T11:23:37;98110.05;;;11.72;55.67
59939;BME280;45801;51.810;19.444;2023-04-25T11:26:04;98113.52;;;11.70;55.87
59939;BME280;45801;51.810;19.444;2023-04-25T11:28:30;98114.85;;;11.66;56.60
59939;BME280;45801;51.810;19.444;2023-04-25T11:30:57;98113.33;;;11.61;55.55
59939;BME280;45801;51.810;19.444;2023-04-25T11:33:24;98109.89;;;11.63;56.05
59939;BME280;45801;51.810;19.444;2023-04-25T11:35:54;98116.19;;;11.63;55.75
59939;BME280;45801;51.810;19.444;2023-04-25T11:38:23;98120.69;;;11.61;55.89
59939;BME280;45801;51.810;19.444;2023-04-25T11:40:53;98121.27;;;11.63;56.59
59939;BME280;45801;51.810;19.444;2023-04-25T11:43:21;98122.05;;;11.68;56.22
59939;BME280;45801;51.810;19.444;2023-04-25T11:45:49;98119.81;;;11.70;55.77
59939;BME280;45801;51.810;19.444;2023-04-25T11:48:18;98125.27;;;11.70;55.21
59939;BME280;45801;51.810;19.444;2023-04-25T11:50:45;98125.71;;;11.75;55.25
59939;BME280;45801;51.810;19.444;2023-04-25T11:53:12;98123.26;;;11.83;56.07
59939;BME280;45801;51.810;19.444;2023-04-25T11:55:38;98124.41;;;11.88;56.24
59939;BME280;45801;51.810;19.444;2023-04-25T11:58:06;98124.63;;;11.98;56.89
59939;BME280;45801;51.810;19.444;2023-04-25T12:00:33;98125.27;;;12.03;55.84
59939;BME280;45801;51.810;19.444;2023-04-25T12:02:59;98123.74;;;12.06;55.81
59939;BME280;45801;51.810;19.444;2023-04-25T12:05:28;98125.21;;;12.10;55.53
59939;BME280;45801;51.810;19.444;2023-04-25T12:07:55;98117.20;;;12.12;55.19
59939;BME280;45801;51.810;19.444;2023-04-25T12:10:24;98113.89;;;12.14;55.34
59939;BME280;45801;51.810;19.444;2023-04-25T12:12:51;98112.16;;;12.06;53.56
59939;BME280;45801;51.810;19.444;2023-04-25T12:15:22;98115.04;;;12.00;53.46
59939;BME280;45801;51.810;19.444;2023-04-25T12:17:51;98117.33;;;12.00;54.83
59939;BME280;45801;51.810;19.444;2023-04-25T12:20:19;98117.25;;;11.90;54.67
59939;BME280;45801;51.810;19.444;2023-04-25T12:22:48;98119.11;;;11.94;54.40
59939;BME280;45801;51.810;19.444;2023-04-25T12:25:34;98120.20;;;11.88;53.65
59939;BME280;45801;51.810;19.444;2023-04-25T12:28:21;98114.59;;;11.96;54.56
59939;BME280;45801;51.810;19.444;2023-04-25T12:31:03;98116.15;;;12.04;54.96
59939;BME280;45801;51.810;19.444;2023-04-25T12:33:35;98118.18;;;12.00;54.86
59939;BME280;45801;51.810;19.444;2023-04-25T12:36:05;98118.89;;;12.00;55.31
59939;BME280;45801;51.810;19.444;2023-04-25T12:38:38;98115.23;;;12.00;55.74
59939;BME280;45801;51.810;19.444;2023-04-25T12:41:05;98122.58;;;12.00;54.86
59939;BME280;45801;51.810;19.444;2023-04-25T12:43:32;98124.15;;;11.99;55.12
59939;BME280;45801;51.810;19.444;2023-04-25T12:45:58;98124.38;;;12.02;54.32
59939;BME280;45801;51.810;19.444;2023-04-25T12:48:25;98119.89;;;12.07;53.15
59939;BME280;45801;51.810;19.444;2023-04-25T12:50:52;98117.23;;;12.14;53.47
59939;BME280;45801;51.810;19.444;2023-04-25T12:53:20;98119.51;;;12.23;53.88
59939;BME280;45801;51.810;19.444;2023-04-25T12:55:47;98116.18;;;12.24;53.23
59939;BME280;45801;51.810;19.444;2023-04-25T12:58:15;98112.16;;;12.24;53.31
59939;BME280;45801;51.810;19.444;2023-04-25T13:00:42;98112.86;;;12.25;53.78